createdAt,value
2023-04-26T00:00:55.500Z,12.50
2023-04-26T00:03:43.034Z,12.40
2023-04-26T00:06:30.342Z,12.40
2023-04-26T00:09:19.578Z,12.40
2023-04-26T00:12:07.169Z,12.30
2023-04-26T00:14:54.263Z,12.30
2023-04-26T00:17:42.901Z,12.30
2023-04-26T00:20:30.537Z,12.20
2023-04-26T00:23:18.418Z,12.20
2023-04-26T00:26:05.700Z,12.20
2023-04-26T00:28:53.089Z,12.10
2023-04-26T00:31:40.713Z,12.10
2023-04-26T00:34:35.146Z,12.10
2023-04-26T00:37:23.313Z,12.00
2023-04-26T00:40:11.336Z,12.00
2023-04-26T00:42:59.403Z,12.00
2023-04-26T00:45:46.697Z,11.90
2023-04-26T00:48:34.459Z,11.90
2023-04-26T00:51:21.862Z,11.90
2023-04-26T00:54:10.080Z,11.90
2023-04-26T00:56:58.055Z,11.90
2023-04-26T00:59:45.410Z,11.90
2023-04-26T01:02:32.880Z,11.80
2023-04-26T01:05:20.765Z,11.80
2023-04-26T01:08:08.244Z,11.80
2023-04-26T01:10:55.744Z,11.80
2023-04-26T01:13:43.389Z,11.80
2023-04-26T01:16:31.289Z,11.70
2023-04-26T01:19:18.879Z,11.70
2023-04-26T01:22:06.058Z,11.60
2023-04-26T01:24:56.478Z,11.60
2023-04-26T01:27:43.718Z,11.60
2023-04-26T01:30:31.074Z,11.50
2023-04-26T01:33:18.283Z,11.40
2023-04-26T01:36:10.667Z,11.40
2023-04-26T01:38:57.928Z,11.40
2023-04-26T01:41:45.161Z,11.40
2023-04-26T01:44:32.407Z,11.40
2023-04-26T01:47:19.703Z,11.40
2023-04-26T01:50:07.696Z,11.40
2023-04-26T01:52:54.913Z,11.40
2023-04-26T01:55:42.099Z,11.40
2023-04-26T01:58:29.960Z,11.40
2023-04-26T02:01:17.255Z,11.40
2023-04-26T02:04:06.395Z,11.30
2023-04-26T02:06:53.628Z,11.20
2023-04-26T02:09:41.475Z,11.20
2023-04-26T02:12:28.589Z,11.10
2023-04-26T02:15:15.978Z,11.10
2023-04-26T02:18:03.556Z,11.10
2023-04-26T02:20:51.114Z,11.10
2023-04-26T02:23:38.340Z,11.10
2023-04-26T02:26:27.019Z,11.00
2023-04-26T02:29:14.292Z,11.00
2023-04-26T02:32:01.482Z,11.00
2023-04-26T02:34:48.680Z,11.00
2023-04-26T02:37:35.952Z,11.00
2023-04-26T02:40:23.323Z,11.00
2023-04-26T02:43:10.608Z,11.00
2023-04-26T02:46:00.414Z,10.90
2023-04-26T02:48:47.639Z,10.90
2023-04-26T02:51:34.864Z,10.90
2023-04-26T02:54:22.056Z,10.90
2023-04-26T02:57:09.827Z,10.90
2023-04-26T02:59:57.888Z,10.90
2023-04-26T03:02:45.127Z,10.80
2023-04-26T03:05:32.742Z,10.80
2023-04-26T03:08:19.927Z,10.80
2023-04-26T03:11:07.256Z,10.80
2023-04-26T03:13:54.452Z,10.70
2023-04-26T03:16:43.057Z,10.70
2023-04-26T03:19:30.508Z,10.70
2023-04-26T03:22:18.265Z,10.60
2023-04-26T03:25:05.944Z,10.60
2023-04-26T03:27:53.797Z,10.60
2023-04-26T03:30:40.891Z,10.60
2023-04-26T03:33:28.148Z,10.60
2023-04-26T03:36:15.300Z,10.60
2023-04-26T03:39:02.648Z,10.60
2023-04-26T03:41:49.871Z,10.60
2023-04-26T03:44:37.063Z,10.60
2023-04-26T03:47:24.388Z,10.60
2023-04-26T03:50:11.904Z,10.60
2023-04-26T03:52:59.093Z,10.60
2023-04-26T03:55:46.287Z,10.50
2023-04-26T03:58:33.507Z,10.50
2023-04-26T04:01:20.800Z,10.50
2023-04-26T04:04:08.405Z,10.40
2023-04-26T04:06:56.100Z,10.50
2023-04-26T04:09:43.323Z,10.50
2023-04-26T04:12:30.553Z,10.50
2023-04-26T04:15:19.050Z,10.50
2023-04-26T04:18:06.573Z,10.50
2023-04-26T04:20:53.850Z,10.50
2023-04-26T04:23:41.163Z,10.50
2023-04-26T04:26:28.368Z,10.50
2023-04-26T04:29:15.958Z,10.50
2023-04-26T04:32:03.224Z,10.50
2023-04-26T04:34:54.023Z,10.50
2023-04-26T04:37:41.575Z,10.50
2023-04-26T04:40:29.084Z,10.50
2023-04-26T04:43:17.784Z,10.50
2023-04-26T04:46:05.061Z,10.50
2023-04-26T04:48:53.560Z,10.60
2023-04-26T04:51:41.051Z,10.60
2023-04-26T04:54:28.351Z,10.60
2023-04-26T04:57:16.861Z,10.60
2023-04-26T05:00:12.604Z,10.60
2023-04-26T05:02:59.862Z,10.70
2023-04-26T05:05:47.200Z,10.70
2023-04-26T05:08:37.917Z,10.70
2023-04-26T05:11:25.386Z,10.80
2023-04-26T05:14:12.874Z,10.80
2023-04-26T05:17:00.229Z,10.80
2023-04-26T05:19:47.636Z,10.90
2023-04-26T05:22:36.905Z,10.90
2023-04-26T05:25:24.229Z,10.90
2023-04-26T05:28:12.921Z,10.90
2023-04-26T05:31:02.016Z,10.90
2023-04-26T05:33:49.447Z,11.00
2023-04-26T05:36:36.877Z,11.00
2023-04-26T05:39:24.167Z,11.10
2023-04-26T05:42:16.993Z,11.20
2023-04-26T05:45:05.793Z,11.20
2023-04-26T05:47:53.055Z,11.30
2023-04-26T05:50:40.264Z,11.30
2023-04-26T05:53:27.746Z,11.40
2023-04-26T05:56:15.027Z,11.40
2023-04-26T05:59:02.218Z,11.50
2023-04-26T06:01:49.627Z,11.50
2023-04-26T06:04:37.462Z,11.60
2023-04-26T06:07:24.762Z,11.60
2023-04-26T06:10:13.128Z,11.70
2023-04-26T06:13:00.627Z,11.80
2023-04-26T06:15:47.845Z,11.90
2023-04-26T06:18:35.541Z,11.90
2023-04-26T06:21:22.759Z,12.00
2023-04-26T06:24:09.951Z,12.10
2023-04-26T06:26:57.242Z,12.20
2023-04-26T06:29:45.268Z,12.30
2023-04-26T06:32:32.651Z,12.40
2023-04-26T06:35:19.988Z,12.50
2023-04-26T06:38:07.754Z,12.60
2023-04-26T06:40:55.027Z,12.70
2023-04-26T06:43:42.332Z,12.70
2023-04-26T06:46:29.609Z,12.80
2023-04-26T06:49:16.820Z,12.90
2023-04-26T06:52:04.196Z,13.00
2023-04-26T06:54:57.014Z,13.00
2023-04-26T06:57:45.170Z,13.10
2023-04-26T07:00:32.408Z,13.10
2023-04-26T07:03:19.766Z,13.20
2023-04-26T07:06:07.386Z,13.20
2023-04-26T07:08:54.680Z,13.20
2023-04-26T07:11:42.094Z,13.30
2023-04-26T07:14:29.353Z,13.30
2023-04-26T07:17:16.674Z,13.40
2023-04-26T07:20:04.392Z,13.50
2023-04-26T07:22:51.618Z,13.60
2023-04-26T07:25:38.836Z,13.70
2023-04-26T07:28:26.570Z,13.70
2023-04-26T07:31:14.029Z,13.80
2023-04-26T07:34:01.331Z,13.90
2023-04-26T07:36:48.505Z,13.90
2023-04-26T07:39:35.712Z,14.00
2023-04-26T07:42:22.953Z,14.10
2023-04-26T07:45:10.846Z,14.10
2023-04-26T07:47:58.156Z,14.20
2023-04-26T07:50:45.476Z,14.20
2023-04-26T07:53:32.971Z,14.30
2023-04-26T07:56:20.112Z,14.30
2023-04-26T07:59:07.693Z,14.40
2023-04-26T08:01:54.822Z,14.50
2023-04-26T08:04:49.939Z,14.60
2023-04-26T08:07:37.236Z,14.70
2023-04-26T08:10:24.439Z,14.80
2023-04-26T08:13:11.835Z,14.80
2023-04-26T08:15:59.025Z,14.90
2023-04-26T08:18:47.070Z,14.90
2023-04-26T08:21:34.336Z,15.00
2023-04-26T08:24:21.517Z,15.00
2023-04-26T08:27:08.897Z,15.10
2023-04-26T08:29:56.118Z,15.10
2023-04-26T08:32:43.338Z,15.00
2023-04-26T08:35:30.552Z,15.00
2023-04-26T08:38:17.692Z,15.00
2023-04-26T08:41:05.587Z,15.00
2023-04-26T08:43:54.776Z,15.00
2023-04-26T08:46:49.253Z,15.00
2023-04-26T08:49:59.501Z,15.10
2023-04-26T08:52:50.298Z,15.10
2023-04-26T08:55:38.928Z,15.10
2023-04-26T08:58:27.099Z,15.10
2023-04-26T09:01:16.090Z,15.20
2023-04-26T09:04:03.630Z,15.30
2023-04-26T09:06:53.532Z,15.40
2023-04-26T09:09:42.699Z,15.40
2023-04-26T09:12:30.143Z,15.40
2023-04-26T09:15:17.965Z,15.50
2023-04-26T09:18:21.361Z,15.50
2023-04-26T09:21:09.239Z,15.50
2023-04-26T09:24:01.812Z,15.60
2023-04-26T09:27:04.365Z,15.70
2023-04-26T09:29:59.323Z,15.70
2023-04-26T09:32:59.248Z,15.70
2023-04-26T09:35:46.506Z,15.80
2023-04-26T09:38:42.913Z,15.80
2023-04-26T09:41:47.469Z,15.80
2023-04-26T09:44:35.707Z,15.90
2023-04-26T09:47:23.095Z,16.00
2023-04-26T09:50:10.464Z,16.10
2023-04-26T09:52:57.929Z,16.20
2023-04-26T09:55:45.361Z,16.40
2023-04-26T09:58:32.624Z,16.60
2023-04-26T10:01:20.451Z,16.80
2023-04-26T10:04:08.294Z,16.90
2023-04-26T10:06:56.012Z,17.10
2023-04-26T10:09:43.591Z,17.20
2023-04-26T10:12:30.842Z,17.40
2023-04-26T10:15:19.370Z,17.40
2023-04-26T10:18:07.034Z,17.40
2023-04-26T10:20:57.681Z,17.40
2023-04-26T10:23:45.369Z,17.40
2023-04-26T10:26:57.904Z,17.50
2023-04-26T10:29:58.585Z,17.50
2023-04-26T10:32:58.233Z,17.50
2023-04-26T10:36:10.136Z,17.50
2023-04-26T10:39:23.305Z,17.50
2023-04-26T10:42:27.408Z,17.50
2023-04-26T10:45:29.141Z,17.40
2023-04-26T10:48:28.678Z,17.40
2023-04-26T10:51:16.220Z,17.30
2023-04-26T10:54:04.244Z,17.30
2023-04-26T10:56:52.085Z,17.30
2023-04-26T10:59:47.488Z,17.30
2023-04-26T11:02:45.374Z,17.30
2023-04-26T11:05:51.243Z,17.30
2023-04-26T11:08:38.501Z,17.20
2023-04-26T11:11:27.286Z,17.20
2023-04-26T11:14:15.083Z,17.30
2023-04-26T11:17:13.015Z,17.30
2023-04-26T11:20:09.267Z,17.30
2023-04-26T11:22:57.013Z,17.20
2023-04-26T11:25:44.703Z,17.20
2023-04-26T11:28:34.412Z,17.20
2023-04-26T11:31:22.193Z,17.30
2023-04-26T11:34:09.409Z,17.40
2023-04-26T11:36:56.639Z,17.50
2023-04-26T11:39:45.620Z,17.60
2023-04-26T11:42:32.723Z,17.70
2023-04-26T11:45:19.931Z,17.80
2023-04-26T11:48:10.428Z,17.70
2023-04-26T11:50:59.599Z,17.50
2023-04-26T11:53:46.738Z,17.60
2023-04-26T11:56:34.005Z,17.50
2023-04-26T11:59:31.470Z,17.50
2023-04-26T12:02:20.692Z,17.70
2023-04-26T12:05:09.327Z,17.70
2023-04-26T12:07:57.992Z,17.70
2023-04-26T12:10:47.215Z,17.80
2023-04-26T12:13:34.454Z,17.80
2023-04-26T12:16:26.617Z,17.80
2023-04-26T12:19:15.297Z,17.90
2023-04-26T12:22:02.876Z,18.10
2023-04-26T12:24:50.099Z,18.20
2023-04-26T12:27:37.629Z,18.20
2023-04-26T12:30:26.966Z,18.30
2023-04-26T12:33:17.595Z,18.50
2023-04-26T12:36:09.948Z,18.70
2023-04-26T12:38:58.024Z,18.80
2023-04-26T12:41:46.398Z,18.80
2023-04-26T12:44:33.538Z,18.90
2023-04-26T12:47:20.727Z,18.80
2023-04-26T12:50:08.315Z,18.80
2023-04-26T12:52:55.572Z,18.80
2023-04-26T12:55:42.788Z,18.90
2023-04-26T12:58:30.112Z,18.90
2023-04-26T13:01:17.413Z,18.90
2023-04-26T13:04:06.018Z,19.10
2023-04-26T13:06:53.545Z,19.20
2023-04-26T13:09:40.755Z,19.20
2023-04-26T13:12:28.710Z,19.30
2023-04-26T13:15:18.773Z,19.30
2023-04-26T13:18:06.590Z,19.30
2023-04-26T13:20:54.237Z,19.40
2023-04-26T13:23:41.432Z,19.40
2023-04-26T13:26:28.654Z,19.50
2023-04-26T13:29:15.992Z,19.50
2023-04-26T13:32:03.746Z,19.60
2023-04-26T13:34:51.824Z,19.60
2023-04-26T13:37:39.127Z,19.60
2023-04-26T13:40:26.264Z,19.60
2023-04-26T13:43:13.422Z,19.60
2023-04-26T13:46:01.411Z,19.60
2023-04-26T13:48:48.591Z,19.70
2023-04-26T13:51:36.231Z,19.70
2023-04-26T13:54:25.795Z,19.60
2023-04-26T13:57:13.058Z,19.60
2023-04-26T14:00:00.188Z,19.50
2023-04-26T14:02:47.536Z,19.50
2023-04-26T14:05:34.853Z,19.40
2023-04-26T14:08:22.120Z,19.30
2023-04-26T14:11:09.372Z,19.30
2023-04-26T14:13:56.612Z,19.20
2023-04-26T14:16:43.938Z,19.20
2023-04-26T14:19:31.406Z,19.20
2023-04-26T14:22:19.761Z,19.30
2023-04-26T14:25:07.190Z,19.30
2023-04-26T14:27:54.878Z,19.30
2023-04-26T14:30:42.608Z,19.40
2023-04-26T14:33:29.784Z,19.40
2023-04-26T14:36:16.980Z,19.50
2023-04-26T14:39:04.276Z,19.60
2023-04-26T14:41:51.876Z,19.70
2023-04-26T14:44:39.007Z,19.80
2023-04-26T14:47:26.402Z,19.90
2023-04-26T14:50:14.155Z,19.90
2023-04-26T14:53:01.720Z,19.90
2023-04-26T14:56:00.751Z,19.90
2023-04-26T14:58:47.903Z,19.90
2023-04-26T15:01:35.170Z,19.90
2023-04-26T15:04:22.772Z,20.00
2023-04-26T15:07:18.044Z,20.10
2023-04-26T15:10:15.719Z,20.20
2023-04-26T15:13:03.444Z,20.30
2023-04-26T15:15:50.646Z,20.40
2023-04-26T15:18:37.854Z,20.50
2023-04-26T15:21:25.144Z,20.60
2023-04-26T15:24:12.330Z,20.80
2023-04-26T15:26:59.455Z,20.90
2023-04-26T15:29:46.637Z,21.20
2023-04-26T15:32:33.845Z,22.00
2023-04-26T15:35:21.127Z,23.50
2023-04-26T15:38:08.350Z,25.40
2023-04-26T15:40:55.539Z,26.90
2023-04-26T15:43:42.716Z,28.00
2023-04-26T15:46:29.894Z,28.60
2023-04-26T15:49:17.069Z,28.90
2023-04-26T15:52:04.313Z,28.80
2023-04-26T15:54:51.519Z,28.50
2023-04-26T15:57:41.671Z,28.00
2023-04-26T16:00:29.040Z,27.40
2023-04-26T16:03:16.990Z,27.10
2023-04-26T16:06:05.051Z,26.90
2023-04-26T16:08:52.217Z,26.60
2023-04-26T16:11:39.445Z,26.30
2023-04-26T16:14:26.673Z,26.80
2023-04-26T16:17:13.853Z,27.80
2023-04-26T16:20:01.875Z,28.70
2023-04-26T16:22:49.928Z,29.40
2023-04-26T16:25:38.105Z,30.10
2023-04-26T16:28:25.337Z,30.10
2023-04-26T16:31:12.763Z,29.40
2023-04-26T16:34:00.173Z,28.30
2023-04-26T16:36:47.394Z,27.20
2023-04-26T16:39:36.035Z,26.20
2023-04-26T16:42:23.495Z,25.40
2023-04-26T16:45:16.294Z,24.70
2023-04-26T16:48:04.048Z,24.30
2023-04-26T16:50:51.729Z,23.90
2023-04-26T16:53:38.959Z,23.70
2023-04-26T16:56:26.231Z,23.40
2023-04-26T16:59:13.735Z,23.00
2023-04-26T17:02:01.276Z,22.70
2023-04-26T17:04:49.067Z,22.50
2023-04-26T17:07:37.097Z,22.30
2023-04-26T17:10:26.446Z,22.30
2023-04-26T17:13:13.889Z,22.20
2023-04-26T17:16:01.697Z,22.10
2023-04-26T17:18:48.942Z,22.00
2023-04-26T17:21:36.340Z,22.00
2023-04-26T17:24:23.836Z,21.90
2023-04-26T17:27:11.202Z,21.90
2023-04-26T17:29:58.488Z,21.80
2023-04-26T17:32:46.102Z,21.80
2023-04-26T17:35:33.509Z,21.70
2023-04-26T17:38:20.749Z,21.60
2023-04-26T17:41:08.052Z,21.80
2023-04-26T17:43:55.438Z,22.50
2023-04-26T17:46:42.722Z,23.60
2023-04-26T17:49:30.035Z,24.60
2023-04-26T17:52:17.981Z,25.20
2023-04-26T17:55:06.585Z,25.70
2023-04-26T17:57:53.804Z,25.70
2023-04-26T18:00:41.347Z,25.20
2023-04-26T18:03:31.531Z,24.40
2023-04-26T18:06:19.916Z,23.70
2023-04-26T18:09:08.619Z,23.00
2023-04-26T18:11:55.771Z,22.50
2023-04-26T18:14:45.665Z,22.10
2023-04-26T18:17:32.871Z,21.80
2023-04-26T18:20:20.029Z,21.40
2023-04-26T18:23:07.133Z,21.10
2023-04-26T18:25:54.247Z,20.90
2023-04-26T18:28:41.457Z,20.80
2023-04-26T18:31:29.696Z,20.70
2023-04-26T18:34:18.733Z,20.50
2023-04-26T18:37:06.194Z,20.40
2023-04-26T18:39:53.442Z,20.30
2023-04-26T18:42:40.722Z,20.20
2023-04-26T18:45:27.899Z,20.10
2023-04-26T18:48:15.078Z,20.00
2023-04-26T18:51:02.291Z,19.90
2023-04-26T18:53:49.565Z,19.80
2023-04-26T18:56:37.579Z,19.70
2023-04-26T18:59:24.878Z,19.60
2023-04-26T19:02:12.122Z,19.60
2023-04-26T19:04:59.486Z,19.50
2023-04-26T19:07:47.056Z,19.40
2023-04-26T19:10:34.578Z,19.30
2023-04-26T19:13:22.108Z,19.20
2023-04-26T19:16:10.449Z,19.10
2023-04-26T19:18:58.228Z,19.00
2023-04-26T19:21:45.865Z,19.00
2023-04-26T19:24:33.184Z,19.00
2023-04-26T19:27:20.675Z,18.90
2023-04-26T19:30:08.526Z,18.80
2023-04-26T19:32:57.128Z,18.80
2023-04-26T19:35:44.422Z,18.70
2023-04-26T19:38:31.844Z,18.60
2023-04-26T19:41:19.088Z,18.60
2023-04-26T19:44:06.332Z,18.50
2023-04-26T19:46:53.850Z,18.50
2023-04-26T19:49:41.106Z,18.40
2023-04-26T19:52:28.340Z,18.40
2023-04-26T19:55:15.746Z,18.30
2023-04-26T19:58:03.423Z,18.30
2023-04-26T20:00:51.201Z,18.30
2023-04-26T20:03:39.584Z,18.20
2023-04-26T20:06:27.718Z,18.10
2023-04-26T20:09:15.018Z,18.10
2023-04-26T20:12:02.165Z,18.00
2023-04-26T20:14:49.764Z,18.00
2023-04-26T20:17:37.556Z,17.90
2023-04-26T20:20:25.529Z,17.90
2023-04-26T20:23:12.686Z,17.80
2023-04-26T20:26:00.016Z,17.90
2023-04-26T20:28:47.579Z,17.90
2023-04-26T20:31:34.939Z,17.80
2023-04-26T20:34:22.246Z,17.80
2023-04-26T20:37:09.465Z,17.80
2023-04-26T20:39:57.546Z,17.70
2023-04-26T20:42:44.829Z,17.70
2023-04-26T20:45:32.068Z,17.70
2023-04-26T20:48:19.734Z,17.70
2023-04-26T20:51:06.888Z,17.60
2023-04-26T20:53:54.039Z,17.60
2023-04-26T20:56:41.192Z,17.50
2023-04-26T20:59:28.443Z,17.50
2023-04-26T21:02:16.040Z,17.40
2023-04-26T21:05:06.963Z,17.40
2023-04-26T21:07:54.205Z,17.30
2023-04-26T21:10:41.486Z,17.20
2023-04-26T21:13:30.186Z,17.20
2023-04-26T21:16:17.522Z,17.10
2023-04-26T21:19:05.415Z,17.00
2023-04-26T21:21:52.667Z,17.00
2023-04-26T21:24:39.868Z,16.90
2023-04-26T21:27:27.114Z,16.80
2023-04-26T21:30:14.599Z,16.80
2023-04-26T21:33:02.255Z,16.70
2023-04-26T21:35:50.202Z,16.60
2023-04-26T21:38:37.383Z,16.50
2023-04-26T21:41:25.841Z,16.40
2023-04-26T21:44:13.352Z,16.40
2023-04-26T21:47:00.685Z,16.30
2023-04-26T21:49:47.987Z,16.20
2023-04-26T21:52:35.251Z,16.10
2023-04-26T21:55:22.429Z,16.00
2023-04-26T21:58:09.753Z,15.90
2023-04-26T22:01:07.721Z,15.90
2023-04-26T22:03:55.128Z,15.80
2023-04-26T22:06:42.680Z,15.70
2023-04-26T22:09:29.854Z,15.70
2023-04-26T22:12:17.155Z,15.70
2023-04-26T22:15:04.700Z,15.70
2023-04-26T22:17:51.980Z,15.70
2023-04-26T22:20:39.292Z,15.60
2023-04-26T22:23:26.609Z,15.50
2023-04-26T22:26:13.938Z,15.40
2023-04-26T22:29:01.199Z,15.40
2023-04-26T22:31:48.430Z,15.30
2023-04-26T22:34:36.007Z,15.20
2023-04-26T22:37:23.157Z,15.20
2023-04-26T22:40:11.892Z,15.10
2023-04-26T22:42:59.269Z,15.00
2023-04-26T22:45:46.481Z,15.00
2023-04-26T22:48:33.702Z,14.90
2023-04-26T22:51:20.966Z,14.80
2023-04-26T22:54:08.200Z,14.80
2023-04-26T22:56:55.364Z,14.70
2023-04-26T22:59:42.570Z,14.60
2023-04-26T23:02:29.820Z,14.60
2023-04-26T23:05:17.561Z,14.50
2023-04-26T23:08:05.155Z,14.40
2023-04-26T23:10:52.387Z,14.40
2023-04-26T23:13:39.652Z,14.30
2023-04-26T23:16:27.658Z,14.30
2023-04-26T23:22:02.077Z,14.20
2023-04-26T23:24:49.303Z,14.10
2023-04-26T23:27:37.797Z,14.10
2023-04-26T23:30:25.023Z,14.10
2023-04-26T23:33:12.288Z,14.10
2023-04-26T23:35:59.574Z,14.00
2023-04-26T23:38:46.885Z,14.00
2023-04-26T23:41:34.119Z,14.00
2023-04-26T23:44:21.336Z,13.90
2023-04-26T23:47:08.516Z,13.90
2023-04-26T23:49:55.936Z,13.80
2023-04-26T23:52:43.097Z,13.80
2023-04-26T23:55:30.331Z,13.70
2023-04-26T23:58:17.534Z,13.70
